EGLC/LCY METAR and TAF weather

Enter ICAO airport designator
Station Type Date Time Source
EGLC METAR 2018/10/21 03:50 UTC NOAA

EGLC 210350Z AUTO 23004KT 9000 NCD 12/10 Q1028


Station Type Date Time Source
EGLC Decoded METAR 2018/10/21 03:50 UTC NOAA

London City Airport, United Kingdom (EGLC) 51-30N 000-30W
Oct 20, 2018 - 11:50 PM EDT / 2018.10.21 0350 UTC
Wind: from the SW (230 degrees) at 5 MPH (4 KT):0
Visibility: 5 mile(s):0
Temperature: 53 F (12 C)
Dew Point: 50 F (10 C)
Relative Humidity: 87%
Pressure (altimeter): 30.36 in. Hg (1028 hPa)
ob: EGLC 210350Z AUTO 23004KT 9000 NCD 12/10 Q1028
cycle: 4

Station Type Date Time Source
EGLC TAF 2018/10/15 21:30 UTC NOAA

TAF EGLC 152119Z 1521/1621 CNL


Example: see airport list